<?xml version="1.0" encoding="UTF-8" standalone="no" ?>
<gpx xmlns="http://www.topografix.com/GPX/1/1" xmlns:xsi="http://www.w3.org/2001/XMLSchema-instance" xsi:schemaLocation="http://www.topografix.com/GPX/1/1 http://www.topografix.com/GPX/1/1/gpx.xsd" version="1.1" creator="VisuGPX - https://www.visugpx.com">
  <metadata>
    <name>26-AVR-15 16:42:55</name>
  </metadata>
  <trk>
    <name><![CDATA[26-AVR-15 16:42:55]]></name>
    <extensions>
      <line xmlns="http://www.topografix.com/GPX/gpx_style/0/2">
        <color>0000FF</color>
        <width>4</width>
      </line>
    </extensions>
    <trkseg>
      <trkpt lat="47.51194" lon="3.74817">
        <ele>187.11</ele>
        <time>2015-04-26T13:36:36Z</time>
      </trkpt>
      <trkpt lat="47.51195" lon="3.74817">
        <ele>187.11</ele>
        <time>2015-04-26T13:36:51Z</time>
      </trkpt>
      <trkpt lat="47.51194" lon="3.74818">
        <ele>187.59</ele>
        <time>2015-04-26T13:37:11Z</time>
      </trkpt>
      <trkpt lat="47.51193" lon="3.74819">
        <ele>187.59</ele>
        <time>2015-04-26T13:37:29Z</time>
      </trkpt>
      <trkpt lat="47.51193" lon="3.7482">
        <ele>187.11</ele>
        <time>2015-04-26T13:37:43Z</time>
      </trkpt>
      <trkpt lat="47.51195" lon="3.74826">
        <ele>187.11</ele>
        <time>2015-04-26T13:37:48Z</time>
      </trkpt>
      <trkpt lat="47.51193" lon="3.74843">
        <ele>186.15</ele>
        <time>2015-04-26T13:38:00Z</time>
      </trkpt>
      <trkpt lat="47.51182" lon="3.74853">
        <ele>185.67</ele>
        <time>2015-04-26T13:38:13Z</time>
      </trkpt>
      <trkpt lat="47.51166" lon="3.74852">
        <ele>186.15</ele>
        <time>2015-04-26T13:38:27Z</time>
      </trkpt>
      <trkpt lat="47.51164" lon="3.74848">
        <ele>186.15</ele>
        <time>2015-04-26T13:38:29Z</time>
      </trkpt>
      <trkpt lat="47.51146" lon="3.74837">
        <ele>186.15</ele>
        <time>2015-04-26T13:38:44Z</time>
      </trkpt>
      <trkpt lat="47.51144" lon="3.74838">
        <ele>182.79</ele>
        <time>2015-04-26T13:38:47Z</time>
      </trkpt>
      <trkpt lat="47.51144" lon="3.74839">
        <ele>186.15</ele>
        <time>2015-04-26T13:38:48Z</time>
      </trkpt>
      <trkpt lat="47.51138" lon="3.74847">
        <ele>183.75</ele>
        <time>2015-04-26T13:38:57Z</time>
      </trkpt>
      <trkpt lat="47.51134" lon="3.74855">
        <ele>183.27</ele>
        <time>2015-04-26T13:39:02Z</time>
      </trkpt>
      <trkpt lat="47.51121" lon="3.74889">
        <ele>180.38</ele>
        <time>2015-04-26T13:39:19Z</time>
      </trkpt>
      <trkpt lat="47.51116" lon="3.74906">
        <ele>178.46</ele>
        <time>2015-04-26T13:39:30Z</time>
      </trkpt>
      <trkpt lat="47.51112" lon="3.74918">
        <ele>177.02</ele>
        <time>2015-04-26T13:39:36Z</time>
      </trkpt>
      <trkpt lat="47.5111" lon="3.7494">
        <ele>175.1</ele>
        <time>2015-04-26T13:39:47Z</time>
      </trkpt>
      <trkpt lat="47.51106" lon="3.74971">
        <ele>172.21</ele>
        <time>2015-04-26T13:40:03Z</time>
      </trkpt>
      <trkpt lat="47.51098" lon="3.75001">
        <ele>169.33</ele>
        <time>2015-04-26T13:40:19Z</time>
      </trkpt>
      <trkpt lat="47.51087" lon="3.75021">
        <ele>167.89</ele>
        <time>2015-04-26T13:40:32Z</time>
      </trkpt>
      <trkpt lat="47.51074" lon="3.75051">
        <ele>166.45</ele>
        <time>2015-04-26T13:40:49Z</time>
      </trkpt>
      <trkpt lat="47.51062" lon="3.75081">
        <ele>165</ele>
        <time>2015-04-26T13:41:04Z</time>
      </trkpt>
      <trkpt lat="47.51049" lon="3.75112">
        <ele>164.04</ele>
        <time>2015-04-26T13:41:21Z</time>
      </trkpt>
      <trkpt lat="47.51038" lon="3.75136">
        <ele>163.56</ele>
        <time>2015-04-26T13:41:34Z</time>
      </trkpt>
      <trkpt lat="47.51025" lon="3.75161">
        <ele>163.08</ele>
        <time>2015-04-26T13:41:49Z</time>
      </trkpt>
      <trkpt lat="47.5101" lon="3.75184">
        <ele>162.12</ele>
        <time>2015-04-26T13:42:04Z</time>
      </trkpt>
      <trkpt lat="47.51006" lon="3.75189">
        <ele>162.12</ele>
        <time>2015-04-26T13:42:08Z</time>
      </trkpt>
      <trkpt lat="47.50983" lon="3.75189">
        <ele>161.16</ele>
        <time>2015-04-26T13:42:25Z</time>
      </trkpt>
      <trkpt lat="47.5096" lon="3.75177">
        <ele>160.2</ele>
        <time>2015-04-26T13:42:39Z</time>
      </trkpt>
      <trkpt lat="47.50938" lon="3.75169">
        <ele>160.68</ele>
        <time>2015-04-26T13:42:52Z</time>
      </trkpt>
      <trkpt lat="47.50916" lon="3.75169">
        <ele>160.68</ele>
        <time>2015-04-26T13:43:07Z</time>
      </trkpt>
      <trkpt lat="47.50893" lon="3.75176">
        <ele>160.68</ele>
        <time>2015-04-26T13:43:22Z</time>
      </trkpt>
      <trkpt lat="47.50883" lon="3.75192">
        <ele>160.68</ele>
        <time>2015-04-26T13:43:34Z</time>
      </trkpt>
      <trkpt lat="47.50869" lon="3.75208">
        <ele>160.2</ele>
        <time>2015-04-26T13:43:47Z</time>
      </trkpt>
      <trkpt lat="47.5085" lon="3.75238">
        <ele>159.72</ele>
        <time>2015-04-26T13:44:03Z</time>
      </trkpt>
      <trkpt lat="47.50837" lon="3.7526">
        <ele>159.72</ele>
        <time>2015-04-26T13:44:16Z</time>
      </trkpt>
      <trkpt lat="47.50819" lon="3.75282">
        <ele>159.72</ele>
        <time>2015-04-26T13:44:31Z</time>
      </trkpt>
      <trkpt lat="47.50809" lon="3.753">
        <ele>158.75</ele>
        <time>2015-04-26T13:44:44Z</time>
      </trkpt>
      <trkpt lat="47.50796" lon="3.75309">
        <ele>159.72</ele>
        <time>2015-04-26T13:44:56Z</time>
      </trkpt>
      <trkpt lat="47.5078" lon="3.75311">
        <ele>160.68</ele>
        <time>2015-04-26T13:45:10Z</time>
      </trkpt>
      <trkpt lat="47.50774" lon="3.7531">
        <ele>162.12</ele>
        <time>2015-04-26T13:45:16Z</time>
      </trkpt>
      <trkpt lat="47.50763" lon="3.75313">
        <ele>164.04</ele>
        <time>2015-04-26T13:45:25Z</time>
      </trkpt>
      <trkpt lat="47.50751" lon="3.75317">
        <ele>165.96</ele>
        <time>2015-04-26T13:45:38Z</time>
      </trkpt>
      <trkpt lat="47.50738" lon="3.75309">
        <ele>167.89</ele>
        <time>2015-04-26T13:45:52Z</time>
      </trkpt>
      <trkpt lat="47.50734" lon="3.75309">
        <ele>167.89</ele>
        <time>2015-04-26T13:45:56Z</time>
      </trkpt>
      <trkpt lat="47.5073" lon="3.75309">
        <ele>168.37</ele>
        <time>2015-04-26T13:45:59Z</time>
      </trkpt>
      <trkpt lat="47.50722" lon="3.75304">
        <ele>169.33</ele>
        <time>2015-04-26T13:46:11Z</time>
      </trkpt>
      <trkpt lat="47.50719" lon="3.753">
        <ele>169.33</ele>
        <time>2015-04-26T13:46:15Z</time>
      </trkpt>
      <trkpt lat="47.50713" lon="3.75299">
        <ele>169.81</ele>
        <time>2015-04-26T13:46:20Z</time>
      </trkpt>
      <trkpt lat="47.50696" lon="3.75299">
        <ele>170.77</ele>
        <time>2015-04-26T13:46:33Z</time>
      </trkpt>
      <trkpt lat="47.50692" lon="3.75296">
        <ele>171.25</ele>
        <time>2015-04-26T13:46:38Z</time>
      </trkpt>
      <trkpt lat="47.50675" lon="3.75294">
        <ele>172.21</ele>
        <time>2015-04-26T13:46:50Z</time>
      </trkpt>
      <trkpt lat="47.50662" lon="3.75291">
        <ele>173.17</ele>
        <time>2015-04-26T13:47:01Z</time>
      </trkpt>
      <trkpt lat="47.50652" lon="3.7529">
        <ele>172.69</ele>
        <time>2015-04-26T13:47:09Z</time>
      </trkpt>
      <trkpt lat="47.50648" lon="3.75288">
        <ele>172.69</ele>
        <time>2015-04-26T13:47:12Z</time>
      </trkpt>
      <trkpt lat="47.50629" lon="3.75278">
        <ele>172.21</ele>
        <time>2015-04-26T13:47:27Z</time>
      </trkpt>
      <trkpt lat="47.50613" lon="3.75271">
        <ele>170.77</ele>
        <time>2015-04-26T13:47:40Z</time>
      </trkpt>
      <trkpt lat="47.50601" lon="3.75267">
        <ele>170.77</ele>
        <time>2015-04-26T13:47:48Z</time>
      </trkpt>
      <trkpt lat="47.50594" lon="3.75259">
        <ele>170.29</ele>
        <time>2015-04-26T13:47:54Z</time>
      </trkpt>
      <trkpt lat="47.50591" lon="3.75256">
        <ele>170.29</ele>
        <time>2015-04-26T13:47:57Z</time>
      </trkpt>
      <trkpt lat="47.50567" lon="3.75244">
        <ele>169.81</ele>
        <time>2015-04-26T13:48:15Z</time>
      </trkpt>
      <trkpt lat="47.50552" lon="3.75236">
        <ele>170.29</ele>
        <time>2015-04-26T13:48:27Z</time>
      </trkpt>
      <trkpt lat="47.50538" lon="3.75231">
        <ele>170.77</ele>
        <time>2015-04-26T13:48:38Z</time>
      </trkpt>
      <trkpt lat="47.50519" lon="3.75229">
        <ele>171.25</ele>
        <time>2015-04-26T13:48:54Z</time>
      </trkpt>
      <trkpt lat="47.50504" lon="3.7523">
        <ele>171.73</ele>
        <time>2015-04-26T13:49:05Z</time>
      </trkpt>
      <trkpt lat="47.50496" lon="3.75229">
        <ele>171.73</ele>
        <time>2015-04-26T13:49:14Z</time>
      </trkpt>
      <trkpt lat="47.50481" lon="3.75219">
        <ele>173.17</ele>
        <time>2015-04-26T13:49:29Z</time>
      </trkpt>
      <trkpt lat="47.50473" lon="3.75219">
        <ele>174.14</ele>
        <time>2015-04-26T13:49:40Z</time>
      </trkpt>
      <trkpt lat="47.50462" lon="3.75219">
        <ele>175.1</ele>
        <time>2015-04-26T13:49:51Z</time>
      </trkpt>
      <trkpt lat="47.50442" lon="3.75216">
        <ele>176.06</ele>
        <time>2015-04-26T13:50:04Z</time>
      </trkpt>
      <trkpt lat="47.5044" lon="3.75216">
        <ele>176.06</ele>
        <time>2015-04-26T13:50:05Z</time>
      </trkpt>
      <trkpt lat="47.50422" lon="3.75207">
        <ele>177.5</ele>
        <time>2015-04-26T13:50:19Z</time>
      </trkpt>
      <trkpt lat="47.50411" lon="3.752">
        <ele>178.94</ele>
        <time>2015-04-26T13:50:32Z</time>
      </trkpt>
      <trkpt lat="47.50381" lon="3.75184">
        <ele>181.35</ele>
        <time>2015-04-26T13:50:49Z</time>
      </trkpt>
      <trkpt lat="47.50364" lon="3.75173">
        <ele>183.75</ele>
        <time>2015-04-26T13:51:06Z</time>
      </trkpt>
      <trkpt lat="47.50358" lon="3.75166">
        <ele>185.19</ele>
        <time>2015-04-26T13:51:24Z</time>
      </trkpt>
      <trkpt lat="47.50348" lon="3.75155">
        <ele>187.11</ele>
        <time>2015-04-26T13:51:39Z</time>
      </trkpt>
      <trkpt lat="47.50346" lon="3.75148">
        <ele>188.56</ele>
        <time>2015-04-26T13:51:52Z</time>
      </trkpt>
      <trkpt lat="47.50328" lon="3.75143">
        <ele>190</ele>
        <time>2015-04-26T13:52:05Z</time>
      </trkpt>
      <trkpt lat="47.50311" lon="3.75141">
        <ele>191.44</ele>
        <time>2015-04-26T13:52:21Z</time>
      </trkpt>
      <trkpt lat="47.50303" lon="3.75135">
        <ele>193.36</ele>
        <time>2015-04-26T13:52:32Z</time>
      </trkpt>
      <trkpt lat="47.5028" lon="3.75131">
        <ele>195.77</ele>
        <time>2015-04-26T13:52:46Z</time>
      </trkpt>
      <trkpt lat="47.50277" lon="3.75129">
        <ele>196.25</ele>
        <time>2015-04-26T13:52:49Z</time>
      </trkpt>
      <trkpt lat="47.50254" lon="3.75109">
        <ele>199.61</ele>
        <time>2015-04-26T13:53:06Z</time>
      </trkpt>
      <trkpt lat="47.50246" lon="3.75105">
        <ele>200.57</ele>
        <time>2015-04-26T13:53:13Z</time>
      </trkpt>
      <trkpt lat="47.50242" lon="3.75105">
        <ele>202.01</ele>
        <time>2015-04-26T13:53:16Z</time>
      </trkpt>
      <trkpt lat="47.50239" lon="3.75106">
        <ele>202.01</ele>
        <time>2015-04-26T13:53:19Z</time>
      </trkpt>
      <trkpt lat="47.50224" lon="3.75118">
        <ele>204.42</ele>
        <time>2015-04-26T13:53:32Z</time>
      </trkpt>
      <trkpt lat="47.50211" lon="3.7514">
        <ele>207.3</ele>
        <time>2015-04-26T13:53:45Z</time>
      </trkpt>
      <trkpt lat="47.50206" lon="3.75147">
        <ele>207.3</ele>
        <time>2015-04-26T13:53:49Z</time>
      </trkpt>
      <trkpt lat="47.50186" lon="3.75167">
        <ele>208.74</ele>
        <time>2015-04-26T13:54:04Z</time>
      </trkpt>
      <trkpt lat="47.5018" lon="3.75169">
        <ele>209.7</ele>
        <time>2015-04-26T13:54:08Z</time>
      </trkpt>
      <trkpt lat="47.50176" lon="3.75174">
        <ele>210.19</ele>
        <time>2015-04-26T13:54:12Z</time>
      </trkpt>
      <trkpt lat="47.50162" lon="3.75183">
        <ele>210.67</ele>
        <time>2015-04-26T13:54:24Z</time>
      </trkpt>
      <trkpt lat="47.50145" lon="3.75191">
        <ele>211.63</ele>
        <time>2015-04-26T13:54:39Z</time>
      </trkpt>
      <trkpt lat="47.5013" lon="3.75195">
        <ele>211.15</ele>
        <time>2015-04-26T13:54:51Z</time>
      </trkpt>
      <trkpt lat="47.50118" lon="3.75197">
        <ele>211.15</ele>
        <time>2015-04-26T13:55:00Z</time>
      </trkpt>
      <trkpt lat="47.50107" lon="3.75204">
        <ele>211.63</ele>
        <time>2015-04-26T13:55:07Z</time>
      </trkpt>
      <trkpt lat="47.50099" lon="3.75209">
        <ele>212.11</ele>
        <time>2015-04-26T13:55:13Z</time>
      </trkpt>
      <trkpt lat="47.50093" lon="3.7521">
        <ele>211.63</ele>
        <time>2015-04-26T13:55:18Z</time>
      </trkpt>
      <trkpt lat="47.50081" lon="3.75218">
        <ele>212.11</ele>
        <time>2015-04-26T13:55:28Z</time>
      </trkpt>
      <trkpt lat="47.50079" lon="3.75218">
        <ele>212.11</ele>
        <time>2015-04-26T13:55:30Z</time>
      </trkpt>
      <trkpt lat="47.50068" lon="3.75224">
        <ele>212.11</ele>
        <time>2015-04-26T13:55:37Z</time>
      </trkpt>
      <trkpt lat="47.5006" lon="3.75232">
        <ele>211.63</ele>
        <time>2015-04-26T13:55:45Z</time>
      </trkpt>
      <trkpt lat="47.50055" lon="3.75232">
        <ele>211.63</ele>
        <time>2015-04-26T13:55:49Z</time>
      </trkpt>
      <trkpt lat="47.50038" lon="3.75243">
        <ele>212.11</ele>
        <time>2015-04-26T13:56:02Z</time>
      </trkpt>
      <trkpt lat="47.5002" lon="3.75247">
        <ele>212.11</ele>
        <time>2015-04-26T13:56:15Z</time>
      </trkpt>
      <trkpt lat="47.49999" lon="3.75252">
        <ele>211.63</ele>
        <time>2015-04-26T13:56:29Z</time>
      </trkpt>
      <trkpt lat="47.49982" lon="3.75251">
        <ele>212.11</ele>
        <time>2015-04-26T13:56:42Z</time>
      </trkpt>
      <trkpt lat="47.49959" lon="3.75254">
        <ele>212.11</ele>
        <time>2015-04-26T13:56:56Z</time>
      </trkpt>
      <trkpt lat="47.49952" lon="3.75254">
        <ele>212.59</ele>
        <time>2015-04-26T13:57:01Z</time>
      </trkpt>
      <trkpt lat="47.49932" lon="3.75251">
        <ele>212.59</ele>
        <time>2015-04-26T13:57:16Z</time>
      </trkpt>
      <trkpt lat="47.49927" lon="3.75252">
        <ele>212.59</ele>
        <time>2015-04-26T13:57:19Z</time>
      </trkpt>
      <trkpt lat="47.49924" lon="3.75255">
        <ele>213.07</ele>
        <time>2015-04-26T13:57:22Z</time>
      </trkpt>
      <trkpt lat="47.49906" lon="3.75253">
        <ele>212.59</ele>
        <time>2015-04-26T13:57:34Z</time>
      </trkpt>
      <trkpt lat="47.4989" lon="3.75256">
        <ele>213.55</ele>
        <time>2015-04-26T13:57:46Z</time>
      </trkpt>
      <trkpt lat="47.49872" lon="3.75252">
        <ele>214.51</ele>
        <time>2015-04-26T13:57:57Z</time>
      </trkpt>
      <trkpt lat="47.49854" lon="3.75251">
        <ele>215.47</ele>
        <time>2015-04-26T13:58:10Z</time>
      </trkpt>
      <trkpt lat="47.49847" lon="3.75247">
        <ele>215.95</ele>
        <time>2015-04-26T13:58:15Z</time>
      </trkpt>
      <trkpt lat="47.49836" lon="3.75246">
        <ele>215.95</ele>
        <time>2015-04-26T13:58:24Z</time>
      </trkpt>
      <trkpt lat="47.4982" lon="3.75241">
        <ele>217.4</ele>
        <time>2015-04-26T13:58:37Z</time>
      </trkpt>
      <trkpt lat="47.49819" lon="3.75243">
        <ele>217.4</ele>
        <time>2015-04-26T13:58:38Z</time>
      </trkpt>
      <trkpt lat="47.49813" lon="3.7524">
        <ele>217.4</ele>
        <time>2015-04-26T13:58:43Z</time>
      </trkpt>
      <trkpt lat="47.49793" lon="3.75235">
        <ele>218.84</ele>
        <time>2015-04-26T13:59:00Z</time>
      </trkpt>
      <trkpt lat="47.49792" lon="3.75234">
        <ele>218.84</ele>
        <time>2015-04-26T13:59:01Z</time>
      </trkpt>
      <trkpt lat="47.49776" lon="3.75231">
        <ele>219.32</ele>
        <time>2015-04-26T13:59:12Z</time>
      </trkpt>
      <trkpt lat="47.49757" lon="3.75229">
        <ele>219.8</ele>
        <time>2015-04-26T13:59:26Z</time>
      </trkpt>
      <trkpt lat="47.4974" lon="3.75231">
        <ele>221.24</ele>
        <time>2015-04-26T13:59:39Z</time>
      </trkpt>
      <trkpt lat="47.49726" lon="3.75231">
        <ele>221.72</ele>
        <time>2015-04-26T13:59:51Z</time>
      </trkpt>
      <trkpt lat="47.49709" lon="3.75231">
        <ele>221.72</ele>
        <time>2015-04-26T14:00:05Z</time>
      </trkpt>
      <trkpt lat="47.49689" lon="3.75233">
        <ele>221.72</ele>
        <time>2015-04-26T14:00:19Z</time>
      </trkpt>
      <trkpt lat="47.49682" lon="3.75233">
        <ele>221.24</ele>
        <time>2015-04-26T14:00:24Z</time>
      </trkpt>
      <trkpt lat="47.4966" lon="3.75235">
        <ele>221.24</ele>
        <time>2015-04-26T14:00:41Z</time>
      </trkpt>
      <trkpt lat="47.4965" lon="3.75234">
        <ele>218.36</ele>
        <time>2015-04-26T14:00:49Z</time>
      </trkpt>
      <trkpt lat="47.49648" lon="3.75234">
        <ele>223.16</ele>
        <time>2015-04-26T14:00:50Z</time>
      </trkpt>
      <trkpt lat="47.4963" lon="3.75233">
        <ele>221.24</ele>
        <time>2015-04-26T14:01:04Z</time>
      </trkpt>
      <trkpt lat="47.49622" lon="3.75232">
        <ele>215.47</ele>
        <time>2015-04-26T14:01:10Z</time>
      </trkpt>
      <trkpt lat="47.49621" lon="3.75232">
        <ele>225.57</ele>
        <time>2015-04-26T14:01:11Z</time>
      </trkpt>
      <trkpt lat="47.49617" lon="3.75231">
        <ele>220.28</ele>
        <time>2015-04-26T14:01:14Z</time>
      </trkpt>
      <trkpt lat="47.49595" lon="3.75221">
        <ele>219.8</ele>
        <time>2015-04-26T14:01:28Z</time>
      </trkpt>
      <trkpt lat="47.49568" lon="3.75218">
        <ele>219.32</ele>
        <time>2015-04-26T14:01:45Z</time>
      </trkpt>
      <trkpt lat="47.49546" lon="3.75214">
        <ele>218.36</ele>
        <time>2015-04-26T14:02:01Z</time>
      </trkpt>
      <trkpt lat="47.49539" lon="3.75215">
        <ele>218.84</ele>
        <time>2015-04-26T14:02:06Z</time>
      </trkpt>
      <trkpt lat="47.49529" lon="3.75212">
        <ele>218.36</ele>
        <time>2015-04-26T14:02:14Z</time>
      </trkpt>
      <trkpt lat="47.49508" lon="3.75209">
        <ele>217.88</ele>
        <time>2015-04-26T14:02:29Z</time>
      </trkpt>
      <trkpt lat="47.49491" lon="3.75197">
        <ele>217.88</ele>
        <time>2015-04-26T14:02:41Z</time>
      </trkpt>
      <trkpt lat="47.49475" lon="3.75186">
        <ele>216.43</ele>
        <time>2015-04-26T14:02:53Z</time>
      </trkpt>
      <trkpt lat="47.49468" lon="3.75179">
        <ele>216.43</ele>
        <time>2015-04-26T14:03:00Z</time>
      </trkpt>
      <trkpt lat="47.49464" lon="3.75173">
        <ele>215.95</ele>
        <time>2015-04-26T14:03:04Z</time>
      </trkpt>
      <trkpt lat="47.49455" lon="3.75171">
        <ele>215.95</ele>
        <time>2015-04-26T14:03:10Z</time>
      </trkpt>
      <trkpt lat="47.4944" lon="3.75163">
        <ele>214.51</ele>
        <time>2015-04-26T14:03:21Z</time>
      </trkpt>
      <trkpt lat="47.49438" lon="3.75162">
        <ele>214.51</ele>
        <time>2015-04-26T14:03:23Z</time>
      </trkpt>
      <trkpt lat="47.49423" lon="3.75155">
        <ele>213.55</ele>
        <time>2015-04-26T14:03:38Z</time>
      </trkpt>
      <trkpt lat="47.49422" lon="3.75154">
        <ele>213.07</ele>
        <time>2015-04-26T14:03:39Z</time>
      </trkpt>
      <trkpt lat="47.49416" lon="3.7515">
        <ele>212.59</ele>
        <time>2015-04-26T14:03:45Z</time>
      </trkpt>
      <trkpt lat="47.4941" lon="3.75149">
        <ele>212.11</ele>
        <time>2015-04-26T14:03:49Z</time>
      </trkpt>
      <trkpt lat="47.494" lon="3.7515">
        <ele>210.19</ele>
        <time>2015-04-26T14:03:59Z</time>
      </trkpt>
      <trkpt lat="47.49385" lon="3.75151">
        <ele>207.78</ele>
        <time>2015-04-26T14:04:14Z</time>
      </trkpt>
      <trkpt lat="47.49367" lon="3.75146">
        <ele>204.42</ele>
        <time>2015-04-26T14:04:29Z</time>
      </trkpt>
      <trkpt lat="47.49353" lon="3.7514">
        <ele>202.49</ele>
        <time>2015-04-26T14:04:42Z</time>
      </trkpt>
      <trkpt lat="47.4935" lon="3.75141">
        <ele>202.49</ele>
        <time>2015-04-26T14:04:45Z</time>
      </trkpt>
      <trkpt lat="47.49338" lon="3.75138">
        <ele>201.53</ele>
        <time>2015-04-26T14:04:50Z</time>
      </trkpt>
      <trkpt lat="47.49318" lon="3.75133">
        <ele>198.65</ele>
        <time>2015-04-26T14:05:06Z</time>
      </trkpt>
      <trkpt lat="47.49305" lon="3.75133">
        <ele>196.25</ele>
        <time>2015-04-26T14:05:20Z</time>
      </trkpt>
      <trkpt lat="47.49289" lon="3.75127">
        <ele>194.8</ele>
        <time>2015-04-26T14:05:31Z</time>
      </trkpt>
      <trkpt lat="47.49265" lon="3.75114">
        <ele>192.4</ele>
        <time>2015-04-26T14:05:47Z</time>
      </trkpt>
      <trkpt lat="47.49255" lon="3.7511">
        <ele>186.63</ele>
        <time>2015-04-26T14:05:53Z</time>
      </trkpt>
      <trkpt lat="47.49254" lon="3.75109">
        <ele>195.77</ele>
        <time>2015-04-26T14:05:54Z</time>
      </trkpt>
      <trkpt lat="47.49252" lon="3.75108">
        <ele>191.92</ele>
        <time>2015-04-26T14:05:55Z</time>
      </trkpt>
      <trkpt lat="47.49237" lon="3.75103">
        <ele>190</ele>
        <time>2015-04-26T14:06:04Z</time>
      </trkpt>
      <trkpt lat="47.49217" lon="3.75096">
        <ele>188.56</ele>
        <time>2015-04-26T14:06:15Z</time>
      </trkpt>
      <trkpt lat="47.49194" lon="3.75089">
        <ele>186.63</ele>
        <time>2015-04-26T14:06:30Z</time>
      </trkpt>
      <trkpt lat="47.49171" lon="3.75083">
        <ele>185.67</ele>
        <time>2015-04-26T14:06:44Z</time>
      </trkpt>
      <trkpt lat="47.49157" lon="3.7508">
        <ele>184.71</ele>
        <time>2015-04-26T14:06:52Z</time>
      </trkpt>
      <trkpt lat="47.49151" lon="3.75078">
        <ele>184.23</ele>
        <time>2015-04-26T14:06:56Z</time>
      </trkpt>
      <trkpt lat="47.49136" lon="3.75072">
        <ele>183.75</ele>
        <time>2015-04-26T14:07:04Z</time>
      </trkpt>
      <trkpt lat="47.49129" lon="3.75069">
        <ele>183.27</ele>
        <time>2015-04-26T14:07:09Z</time>
      </trkpt>
      <trkpt lat="47.49121" lon="3.75068">
        <ele>182.31</ele>
        <time>2015-04-26T14:07:15Z</time>
      </trkpt>
      <trkpt lat="47.49106" lon="3.75063">
        <ele>181.83</ele>
        <time>2015-04-26T14:07:24Z</time>
      </trkpt>
      <trkpt lat="47.491" lon="3.75059">
        <ele>181.35</ele>
        <time>2015-04-26T14:07:29Z</time>
      </trkpt>
      <trkpt lat="47.49084" lon="3.75055">
        <ele>179.9</ele>
        <time>2015-04-26T14:07:44Z</time>
      </trkpt>
      <trkpt lat="47.49076" lon="3.75058">
        <ele>178.46</ele>
        <time>2015-04-26T14:07:52Z</time>
      </trkpt>
      <trkpt lat="47.49068" lon="3.75063">
        <ele>178.46</ele>
        <time>2015-04-26T14:07:58Z</time>
      </trkpt>
      <trkpt lat="47.4905" lon="3.75068">
        <ele>176.06</ele>
        <time>2015-04-26T14:08:13Z</time>
      </trkpt>
      <trkpt lat="47.49043" lon="3.7507">
        <ele>175.58</ele>
        <time>2015-04-26T14:08:17Z</time>
      </trkpt>
      <trkpt lat="47.49015" lon="3.75055">
        <ele>175.1</ele>
        <time>2015-04-26T14:08:33Z</time>
      </trkpt>
      <trkpt lat="47.48987" lon="3.75048">
        <ele>173.66</ele>
        <time>2015-04-26T14:08:49Z</time>
      </trkpt>
      <trkpt lat="47.48964" lon="3.75039">
        <ele>172.21</ele>
        <time>2015-04-26T14:09:03Z</time>
      </trkpt>
      <trkpt lat="47.48942" lon="3.75032">
        <ele>171.73</ele>
        <time>2015-04-26T14:09:17Z</time>
      </trkpt>
      <trkpt lat="47.4892" lon="3.75021">
        <ele>170.77</ele>
        <time>2015-04-26T14:09:32Z</time>
      </trkpt>
      <trkpt lat="47.489" lon="3.75011">
        <ele>169.81</ele>
        <time>2015-04-26T14:09:47Z</time>
      </trkpt>
      <trkpt lat="47.48877" lon="3.75001">
        <ele>168.85</ele>
        <time>2015-04-26T14:10:03Z</time>
      </trkpt>
      <trkpt lat="47.48862" lon="3.74995">
        <ele>168.85</ele>
        <time>2015-04-26T14:10:15Z</time>
      </trkpt>
      <trkpt lat="47.48844" lon="3.74987">
        <ele>167.89</ele>
        <time>2015-04-26T14:10:30Z</time>
      </trkpt>
      <trkpt lat="47.4883" lon="3.74979">
        <ele>167.89</ele>
        <time>2015-04-26T14:10:42Z</time>
      </trkpt>
      <trkpt lat="47.48817" lon="3.74981">
        <ele>167.41</ele>
        <time>2015-04-26T14:10:48Z</time>
      </trkpt>
      <trkpt lat="47.48811" lon="3.74981">
        <ele>167.41</ele>
        <time>2015-04-26T14:10:51Z</time>
      </trkpt>
      <trkpt lat="47.48807" lon="3.74982">
        <ele>166.93</ele>
        <time>2015-04-26T14:10:55Z</time>
      </trkpt>
      <trkpt lat="47.48802" lon="3.74982">
        <ele>167.41</ele>
        <time>2015-04-26T14:10:58Z</time>
      </trkpt>
      <trkpt lat="47.48786" lon="3.74973">
        <ele>166.45</ele>
        <time>2015-04-26T14:11:10Z</time>
      </trkpt>
      <trkpt lat="47.48763" lon="3.74966">
        <ele>165.48</ele>
        <time>2015-04-26T14:11:24Z</time>
      </trkpt>
      <trkpt lat="47.48741" lon="3.74963">
        <ele>164.04</ele>
        <time>2015-04-26T14:11:38Z</time>
      </trkpt>
      <trkpt lat="47.48721" lon="3.74962">
        <ele>162.6</ele>
        <time>2015-04-26T14:11:52Z</time>
      </trkpt>
      <trkpt lat="47.4871" lon="3.74959">
        <ele>161.64</ele>
        <time>2015-04-26T14:12:00Z</time>
      </trkpt>
      <trkpt lat="47.4871" lon="3.74943">
        <ele>160.68</ele>
        <time>2015-04-26T14:12:08Z</time>
      </trkpt>
      <trkpt lat="47.48714" lon="3.74937">
        <ele>161.16</ele>
        <time>2015-04-26T14:12:13Z</time>
      </trkpt>
      <trkpt lat="47.48728" lon="3.74912">
        <ele>161.16</ele>
        <time>2015-04-26T14:12:27Z</time>
      </trkpt>
      <trkpt lat="47.48732" lon="3.74892">
        <ele>156.83</ele>
        <time>2015-04-26T14:12:38Z</time>
      </trkpt>
      <trkpt lat="47.48731" lon="3.74889">
        <ele>156.83</ele>
        <time>2015-04-26T14:12:39Z</time>
      </trkpt>
      <trkpt lat="47.48731" lon="3.74887">
        <ele>164.04</ele>
        <time>2015-04-26T14:12:40Z</time>
      </trkpt>
      <trkpt lat="47.48731" lon="3.74885">
        <ele>161.16</ele>
        <time>2015-04-26T14:12:41Z</time>
      </trkpt>
      <trkpt lat="47.48728" lon="3.74879">
        <ele>160.68</ele>
        <time>2015-04-26T14:12:45Z</time>
      </trkpt>
      <trkpt lat="47.48716" lon="3.7487">
        <ele>160.2</ele>
        <time>2015-04-26T14:12:56Z</time>
      </trkpt>
      <trkpt lat="47.48707" lon="3.74873">
        <ele>159.72</ele>
        <time>2015-04-26T14:13:03Z</time>
      </trkpt>
      <trkpt lat="47.48682" lon="3.74886">
        <ele>159.24</ele>
        <time>2015-04-26T14:13:18Z</time>
      </trkpt>
      <trkpt lat="47.48659" lon="3.74897">
        <ele>158.75</ele>
        <time>2015-04-26T14:13:33Z</time>
      </trkpt>
      <trkpt lat="47.48633" lon="3.74907">
        <ele>158.27</ele>
        <time>2015-04-26T14:13:51Z</time>
      </trkpt>
      <trkpt lat="47.48613" lon="3.74914">
        <ele>158.27</ele>
        <time>2015-04-26T14:14:06Z</time>
      </trkpt>
      <trkpt lat="47.48601" lon="3.74922">
        <ele>158.75</ele>
        <time>2015-04-26T14:14:14Z</time>
      </trkpt>
      <trkpt lat="47.48596" lon="3.74924">
        <ele>158.75</ele>
        <time>2015-04-26T14:14:18Z</time>
      </trkpt>
      <trkpt lat="47.48581" lon="3.74943">
        <ele>158.75</ele>
        <time>2015-04-26T14:14:32Z</time>
      </trkpt>
      <trkpt lat="47.48578" lon="3.74948">
        <ele>158.27</ele>
        <time>2015-04-26T14:14:35Z</time>
      </trkpt>
      <trkpt lat="47.48568" lon="3.74967">
        <ele>158.75</ele>
        <time>2015-04-26T14:14:50Z</time>
      </trkpt>
      <trkpt lat="47.48553" lon="3.74997">
        <ele>159.24</ele>
        <time>2015-04-26T14:15:07Z</time>
      </trkpt>
      <trkpt lat="47.48531" lon="3.75009">
        <ele>160.68</ele>
        <time>2015-04-26T14:15:23Z</time>
      </trkpt>
      <trkpt lat="47.48511" lon="3.75019">
        <ele>161.16</ele>
        <time>2015-04-26T14:15:36Z</time>
      </trkpt>
      <trkpt lat="47.48491" lon="3.75021">
        <ele>161.64</ele>
        <time>2015-04-26T14:15:51Z</time>
      </trkpt>
      <trkpt lat="47.48471" lon="3.75026">
        <ele>161.64</ele>
        <time>2015-04-26T14:16:06Z</time>
      </trkpt>
      <trkpt lat="47.48446" lon="3.75033">
        <ele>162.6</ele>
        <time>2015-04-26T14:16:22Z</time>
      </trkpt>
      <trkpt lat="47.48424" lon="3.75046">
        <ele>162.6</ele>
        <time>2015-04-26T14:16:37Z</time>
      </trkpt>
      <trkpt lat="47.48401" lon="3.75059">
        <ele>163.56</ele>
        <time>2015-04-26T14:16:52Z</time>
      </trkpt>
      <trkpt lat="47.48385" lon="3.75067">
        <ele>164.52</ele>
        <time>2015-04-26T14:17:03Z</time>
      </trkpt>
      <trkpt lat="47.48364" lon="3.75073">
        <ele>166.45</ele>
        <time>2015-04-26T14:17:18Z</time>
      </trkpt>
      <trkpt lat="47.48343" lon="3.7508">
        <ele>168.85</ele>
        <time>2015-04-26T14:17:33Z</time>
      </trkpt>
      <trkpt lat="47.48325" lon="3.75085">
        <ele>170.29</ele>
        <time>2015-04-26T14:17:48Z</time>
      </trkpt>
      <trkpt lat="47.48307" lon="3.75084">
        <ele>170.29</ele>
        <time>2015-04-26T14:18:01Z</time>
      </trkpt>
      <trkpt lat="47.48292" lon="3.75079">
        <ele>169.81</ele>
        <time>2015-04-26T14:18:14Z</time>
      </trkpt>
      <trkpt lat="47.4827" lon="3.7507">
        <ele>167.89</ele>
        <time>2015-04-26T14:18:29Z</time>
      </trkpt>
      <trkpt lat="47.48258" lon="3.75067">
        <ele>166.45</ele>
        <time>2015-04-26T14:18:37Z</time>
      </trkpt>
      <trkpt lat="47.4823" lon="3.75067">
        <ele>165</ele>
        <time>2015-04-26T14:18:53Z</time>
      </trkpt>
      <trkpt lat="47.48206" lon="3.75066">
        <ele>164.04</ele>
        <time>2015-04-26T14:19:09Z</time>
      </trkpt>
      <trkpt lat="47.48181" lon="3.75067">
        <ele>163.08</ele>
        <time>2015-04-26T14:19:25Z</time>
      </trkpt>
      <trkpt lat="47.48159" lon="3.75065">
        <ele>163.56</ele>
        <time>2015-04-26T14:19:37Z</time>
      </trkpt>
      <trkpt lat="47.48138" lon="3.75067">
        <ele>163.08</ele>
        <time>2015-04-26T14:19:51Z</time>
      </trkpt>
      <trkpt lat="47.48119" lon="3.75063">
        <ele>163.56</ele>
        <time>2015-04-26T14:20:04Z</time>
      </trkpt>
      <trkpt lat="47.48104" lon="3.75063">
        <ele>164.04</ele>
        <time>2015-04-26T14:20:15Z</time>
      </trkpt>
      <trkpt lat="47.48086" lon="3.75063">
        <ele>164.52</ele>
        <time>2015-04-26T14:20:28Z</time>
      </trkpt>
      <trkpt lat="47.48067" lon="3.75066">
        <ele>165.96</ele>
        <time>2015-04-26T14:20:41Z</time>
      </trkpt>
      <trkpt lat="47.48066" lon="3.75067">
        <ele>165.96</ele>
        <time>2015-04-26T14:20:42Z</time>
      </trkpt>
      <trkpt lat="47.48048" lon="3.7506">
        <ele>166.45</ele>
        <time>2015-04-26T14:20:59Z</time>
      </trkpt>
      <trkpt lat="47.48047" lon="3.7506">
        <ele>166.93</ele>
        <time>2015-04-26T14:21:00Z</time>
      </trkpt>
      <trkpt lat="47.48037" lon="3.75055">
        <ele>166.45</ele>
        <time>2015-04-26T14:21:09Z</time>
      </trkpt>
      <trkpt lat="47.4802" lon="3.75043">
        <ele>166.93</ele>
        <time>2015-04-26T14:21:22Z</time>
      </trkpt>
      <trkpt lat="47.47994" lon="3.75035">
        <ele>167.89</ele>
        <time>2015-04-26T14:21:37Z</time>
      </trkpt>
      <trkpt lat="47.47987" lon="3.75032">
        <ele>168.37</ele>
        <time>2015-04-26T14:21:42Z</time>
      </trkpt>
      <trkpt lat="47.47982" lon="3.7503">
        <ele>168.37</ele>
        <time>2015-04-26T14:21:46Z</time>
      </trkpt>
      <trkpt lat="47.47976" lon="3.75031">
        <ele>167.89</ele>
        <time>2015-04-26T14:21:50Z</time>
      </trkpt>
      <trkpt lat="47.47953" lon="3.75045">
        <ele>166.45</ele>
        <time>2015-04-26T14:22:06Z</time>
      </trkpt>
      <trkpt lat="47.4795" lon="3.75048">
        <ele>166.93</ele>
        <time>2015-04-26T14:22:09Z</time>
      </trkpt>
      <trkpt lat="47.47939" lon="3.75056">
        <ele>165.48</ele>
        <time>2015-04-26T14:22:21Z</time>
      </trkpt>
      <trkpt lat="47.47919" lon="3.75057">
        <ele>163.56</ele>
        <time>2015-04-26T14:22:36Z</time>
      </trkpt>
      <trkpt lat="47.4791" lon="3.75059">
        <ele>163.08</ele>
        <time>2015-04-26T14:22:43Z</time>
      </trkpt>
      <trkpt lat="47.47889" lon="3.75051">
        <ele>160.68</ele>
        <time>2015-04-26T14:22:59Z</time>
      </trkpt>
      <trkpt lat="47.47887" lon="3.7505">
        <ele>160.68</ele>
        <time>2015-04-26T14:23:00Z</time>
      </trkpt>
      <trkpt lat="47.47869" lon="3.75042">
        <ele>159.72</ele>
        <time>2015-04-26T14:23:13Z</time>
      </trkpt>
      <trkpt lat="47.47866" lon="3.7504">
        <ele>159.72</ele>
        <time>2015-04-26T14:23:15Z</time>
      </trkpt>
      <trkpt lat="47.47848" lon="3.75034">
        <ele>159.24</ele>
        <time>2015-04-26T14:23:28Z</time>
      </trkpt>
      <trkpt lat="47.47846" lon="3.75034">
        <ele>159.24</ele>
        <time>2015-04-26T14:23:29Z</time>
      </trkpt>
      <trkpt lat="47.47827" lon="3.75033">
        <ele>158.27</ele>
        <time>2015-04-26T14:23:41Z</time>
      </trkpt>
      <trkpt lat="47.47809" lon="3.75047">
        <ele>158.27</ele>
        <time>2015-04-26T14:23:56Z</time>
      </trkpt>
      <trkpt lat="47.478" lon="3.75057">
        <ele>157.79</ele>
        <time>2015-04-26T14:24:03Z</time>
      </trkpt>
      <trkpt lat="47.47784" lon="3.75079">
        <ele>158.75</ele>
        <time>2015-04-26T14:24:17Z</time>
      </trkpt>
      <trkpt lat="47.47767" lon="3.75099">
        <ele>160.2</ele>
        <time>2015-04-26T14:24:31Z</time>
      </trkpt>
      <trkpt lat="47.47752" lon="3.75113">
        <ele>161.64</ele>
        <time>2015-04-26T14:24:46Z</time>
      </trkpt>
      <trkpt lat="47.47739" lon="3.75124">
        <ele>163.08</ele>
        <time>2015-04-26T14:24:58Z</time>
      </trkpt>
      <trkpt lat="47.47731" lon="3.7513">
        <ele>164.52</ele>
        <time>2015-04-26T14:25:07Z</time>
      </trkpt>
      <trkpt lat="47.47725" lon="3.75135">
        <ele>165</ele>
        <time>2015-04-26T14:25:12Z</time>
      </trkpt>
      <trkpt lat="47.47706" lon="3.75125">
        <ele>167.41</ele>
        <time>2015-04-26T14:25:29Z</time>
      </trkpt>
      <trkpt lat="47.47693" lon="3.75125">
        <ele>168.85</ele>
        <time>2015-04-26T14:25:40Z</time>
      </trkpt>
      <trkpt lat="47.47688" lon="3.75124">
        <ele>169.81</ele>
        <time>2015-04-26T14:25:44Z</time>
      </trkpt>
      <trkpt lat="47.47665" lon="3.75114">
        <ele>170.77</ele>
        <time>2015-04-26T14:26:00Z</time>
      </trkpt>
      <trkpt lat="47.47642" lon="3.75106">
        <ele>172.21</ele>
        <time>2015-04-26T14:26:14Z</time>
      </trkpt>
      <trkpt lat="47.47624" lon="3.75094">
        <ele>172.69</ele>
        <time>2015-04-26T14:26:28Z</time>
      </trkpt>
      <trkpt lat="47.47604" lon="3.75088">
        <ele>174.14</ele>
        <time>2015-04-26T14:26:41Z</time>
      </trkpt>
      <trkpt lat="47.47589" lon="3.75077">
        <ele>175.1</ele>
        <time>2015-04-26T14:26:55Z</time>
      </trkpt>
      <trkpt lat="47.47569" lon="3.75069">
        <ele>176.54</ele>
        <time>2015-04-26T14:27:09Z</time>
      </trkpt>
      <trkpt lat="47.47553" lon="3.75056">
        <ele>177.02</ele>
        <time>2015-04-26T14:27:23Z</time>
      </trkpt>
      <trkpt lat="47.4753" lon="3.75046">
        <ele>177.98</ele>
        <time>2015-04-26T14:27:38Z</time>
      </trkpt>
      <trkpt lat="47.47515" lon="3.75039">
        <ele>178.46</ele>
        <time>2015-04-26T14:27:50Z</time>
      </trkpt>
      <trkpt lat="47.47496" lon="3.75027">
        <ele>178.94</ele>
        <time>2015-04-26T14:28:06Z</time>
      </trkpt>
      <trkpt lat="47.47485" lon="3.75026">
        <ele>179.9</ele>
        <time>2015-04-26T14:28:16Z</time>
      </trkpt>
      <trkpt lat="47.47478" lon="3.75023">
        <ele>179.9</ele>
        <time>2015-04-26T14:28:21Z</time>
      </trkpt>
      <trkpt lat="47.47464" lon="3.75016">
        <ele>180.87</ele>
        <time>2015-04-26T14:28:32Z</time>
      </trkpt>
      <trkpt lat="47.4744" lon="3.7501">
        <ele>180.87</ele>
        <time>2015-04-26T14:28:48Z</time>
      </trkpt>
      <trkpt lat="47.47427" lon="3.75003">
        <ele>181.83</ele>
        <time>2015-04-26T14:29:01Z</time>
      </trkpt>
      <trkpt lat="47.47426" lon="3.75002">
        <ele>181.83</ele>
        <time>2015-04-26T14:29:03Z</time>
      </trkpt>
      <trkpt lat="47.47406" lon="3.74992">
        <ele>182.79</ele>
        <time>2015-04-26T14:29:18Z</time>
      </trkpt>
      <trkpt lat="47.47386" lon="3.74988">
        <ele>183.75</ele>
        <time>2015-04-26T14:29:30Z</time>
      </trkpt>
      <trkpt lat="47.47364" lon="3.74987">
        <ele>184.23</ele>
        <time>2015-04-26T14:29:45Z</time>
      </trkpt>
      <trkpt lat="47.47344" lon="3.74982">
        <ele>185.19</ele>
        <time>2015-04-26T14:29:59Z</time>
      </trkpt>
      <trkpt lat="47.4732" lon="3.74986">
        <ele>186.15</ele>
        <time>2015-04-26T14:30:14Z</time>
      </trkpt>
      <trkpt lat="47.47301" lon="3.74986">
        <ele>186.63</ele>
        <time>2015-04-26T14:30:27Z</time>
      </trkpt>
      <trkpt lat="47.47283" lon="3.74989">
        <ele>187.11</ele>
        <time>2015-04-26T14:30:39Z</time>
      </trkpt>
      <trkpt lat="47.47279" lon="3.7499">
        <ele>187.59</ele>
        <time>2015-04-26T14:30:42Z</time>
      </trkpt>
      <trkpt lat="47.47275" lon="3.7499">
        <ele>188.08</ele>
        <time>2015-04-26T14:30:47Z</time>
      </trkpt>
      <trkpt lat="47.47264" lon="3.74993">
        <ele>188.56</ele>
        <time>2015-04-26T14:30:54Z</time>
      </trkpt>
      <trkpt lat="47.47243" lon="3.74996">
        <ele>190</ele>
        <time>2015-04-26T14:31:09Z</time>
      </trkpt>
      <trkpt lat="47.47242" lon="3.74996">
        <ele>190</ele>
        <time>2015-04-26T14:31:10Z</time>
      </trkpt>
      <trkpt lat="47.47237" lon="3.75">
        <ele>190.96</ele>
        <time>2015-04-26T14:31:16Z</time>
      </trkpt>
      <trkpt lat="47.47222" lon="3.75005">
        <ele>193.36</ele>
        <time>2015-04-26T14:31:32Z</time>
      </trkpt>
      <trkpt lat="47.47215" lon="3.75006">
        <ele>195.28</ele>
        <time>2015-04-26T14:31:45Z</time>
      </trkpt>
      <trkpt lat="47.47199" lon="3.75009">
        <ele>197.21</ele>
        <time>2015-04-26T14:32:00Z</time>
      </trkpt>
      <trkpt lat="47.47181" lon="3.7501">
        <ele>198.65</ele>
        <time>2015-04-26T14:32:13Z</time>
      </trkpt>
      <trkpt lat="47.47159" lon="3.75012">
        <ele>201.53</ele>
        <time>2015-04-26T14:32:30Z</time>
      </trkpt>
      <trkpt lat="47.47153" lon="3.75014">
        <ele>202.01</ele>
        <time>2015-04-26T14:32:35Z</time>
      </trkpt>
      <trkpt lat="47.4715" lon="3.75014">
        <ele>202.49</ele>
        <time>2015-04-26T14:32:37Z</time>
      </trkpt>
      <trkpt lat="47.47126" lon="3.75019">
        <ele>204.42</ele>
        <time>2015-04-26T14:32:54Z</time>
      </trkpt>
      <trkpt lat="47.47109" lon="3.75033">
        <ele>207.3</ele>
        <time>2015-04-26T14:33:08Z</time>
      </trkpt>
      <trkpt lat="47.47099" lon="3.7504">
        <ele>208.26</ele>
        <time>2015-04-26T14:33:16Z</time>
      </trkpt>
      <trkpt lat="47.47098" lon="3.75042">
        <ele>207.78</ele>
        <time>2015-04-26T14:33:18Z</time>
      </trkpt>
      <trkpt lat="47.47078" lon="3.7505">
        <ele>210.19</ele>
        <time>2015-04-26T14:33:35Z</time>
      </trkpt>
      <trkpt lat="47.47076" lon="3.75051">
        <ele>210.67</ele>
        <time>2015-04-26T14:33:38Z</time>
      </trkpt>
      <trkpt lat="47.47072" lon="3.75053">
        <ele>211.15</ele>
        <time>2015-04-26T14:33:42Z</time>
      </trkpt>
      <trkpt lat="47.47058" lon="3.75052">
        <ele>212.11</ele>
        <time>2015-04-26T14:33:50Z</time>
      </trkpt>
      <trkpt lat="47.47046" lon="3.75054">
        <ele>213.55</ele>
        <time>2015-04-26T14:34:01Z</time>
      </trkpt>
      <trkpt lat="47.47032" lon="3.75055">
        <ele>215.95</ele>
        <time>2015-04-26T14:34:16Z</time>
      </trkpt>
      <trkpt lat="47.47017" lon="3.75057">
        <ele>218.36</ele>
        <time>2015-04-26T14:34:32Z</time>
      </trkpt>
      <trkpt lat="47.47005" lon="3.75058">
        <ele>219.8</ele>
        <time>2015-04-26T14:34:45Z</time>
      </trkpt>
      <trkpt lat="47.46985" lon="3.75062">
        <ele>221.72</ele>
        <time>2015-04-26T14:34:59Z</time>
      </trkpt>
      <trkpt lat="47.46966" lon="3.75062">
        <ele>224.61</ele>
        <time>2015-04-26T14:35:12Z</time>
      </trkpt>
      <trkpt lat="47.46951" lon="3.75062">
        <ele>227.01</ele>
        <time>2015-04-26T14:35:26Z</time>
      </trkpt>
      <trkpt lat="47.46945" lon="3.75063">
        <ele>228.45</ele>
        <time>2015-04-26T14:35:33Z</time>
      </trkpt>
      <trkpt lat="47.46935" lon="3.75064">
        <ele>230.37</ele>
        <time>2015-04-26T14:35:46Z</time>
      </trkpt>
      <trkpt lat="47.46925" lon="3.75057">
        <ele>233.74</ele>
        <time>2015-04-26T14:36:00Z</time>
      </trkpt>
      <trkpt lat="47.46914" lon="3.75043">
        <ele>235.66</ele>
        <time>2015-04-26T14:36:13Z</time>
      </trkpt>
      <trkpt lat="47.46905" lon="3.75034">
        <ele>238.06</ele>
        <time>2015-04-26T14:36:26Z</time>
      </trkpt>
      <trkpt lat="47.46897" lon="3.75018">
        <ele>241.43</ele>
        <time>2015-04-26T14:36:41Z</time>
      </trkpt>
      <trkpt lat="47.46885" lon="3.75001">
        <ele>242.87</ele>
        <time>2015-04-26T14:36:56Z</time>
      </trkpt>
      <trkpt lat="47.46878" lon="3.74989">
        <ele>246.23</ele>
        <time>2015-04-26T14:37:09Z</time>
      </trkpt>
      <trkpt lat="47.46869" lon="3.74975">
        <ele>249.12</ele>
        <time>2015-04-26T14:37:24Z</time>
      </trkpt>
      <trkpt lat="47.46861" lon="3.74956">
        <ele>251.52</ele>
        <time>2015-04-26T14:37:39Z</time>
      </trkpt>
      <trkpt lat="47.46857" lon="3.74943">
        <ele>253.44</ele>
        <time>2015-04-26T14:37:51Z</time>
      </trkpt>
      <trkpt lat="47.46851" lon="3.74924">
        <ele>255.37</ele>
        <time>2015-04-26T14:38:04Z</time>
      </trkpt>
      <trkpt lat="47.46849" lon="3.74905">
        <ele>258.73</ele>
        <time>2015-04-26T14:38:19Z</time>
      </trkpt>
      <trkpt lat="47.46831" lon="3.74893">
        <ele>260.65</ele>
        <time>2015-04-26T14:38:31Z</time>
      </trkpt>
      <trkpt lat="47.46824" lon="3.74881">
        <ele>263.54</ele>
        <time>2015-04-26T14:38:45Z</time>
      </trkpt>
      <trkpt lat="47.46819" lon="3.74882">
        <ele>264.02</ele>
        <time>2015-04-26T14:39:01Z</time>
      </trkpt>
      <trkpt lat="47.46809" lon="3.74871">
        <ele>267.38</ele>
        <time>2015-04-26T14:39:17Z</time>
      </trkpt>
      <trkpt lat="47.46803" lon="3.74863">
        <ele>270.27</ele>
        <time>2015-04-26T14:39:33Z</time>
      </trkpt>
      <trkpt lat="47.46791" lon="3.74849">
        <ele>272.19</ele>
        <time>2015-04-26T14:39:47Z</time>
      </trkpt>
      <trkpt lat="47.46775" lon="3.74833">
        <ele>274.59</ele>
        <time>2015-04-26T14:39:59Z</time>
      </trkpt>
      <trkpt lat="47.46758" lon="3.74812">
        <ele>277</ele>
        <time>2015-04-26T14:40:14Z</time>
      </trkpt>
      <trkpt lat="47.46752" lon="3.74803">
        <ele>279.88</ele>
        <time>2015-04-26T14:40:27Z</time>
      </trkpt>
      <trkpt lat="47.46748" lon="3.74801">
        <ele>279.88</ele>
        <time>2015-04-26T14:40:31Z</time>
      </trkpt>
      <trkpt lat="47.46728" lon="3.74782">
        <ele>283.25</ele>
        <time>2015-04-26T14:40:48Z</time>
      </trkpt>
      <trkpt lat="47.46725" lon="3.74776">
        <ele>283.73</ele>
        <time>2015-04-26T14:40:52Z</time>
      </trkpt>
      <trkpt lat="47.4671" lon="3.74761">
        <ele>286.61</ele>
        <time>2015-04-26T14:41:07Z</time>
      </trkpt>
      <trkpt lat="47.46694" lon="3.74753">
        <ele>290.46</ele>
        <time>2015-04-26T14:41:25Z</time>
      </trkpt>
    </trkseg>
  </trk>
</gpx>